Terminal Aerodrome Forecast
Issued by NWS Charleston, SC

Current Version | Previous Version | Text Only | Print | Product List | Glossary On
Versions: 1 2 3 4 5 6 7 8 9 10 11 12 13 14 15 16
000
FTUS42 KCHS 022123 AAB
TAFSAV
TAF AMD
KSAV 022123Z 0221/0318 21010G16KT P6SM SCT040 BKN150
      TEMPO 0222/0301 VRB25G35KT 2SM +TSRA BKN035CB
     FM030100 22007KT P6SM FEW040 BKN150
     FM031600 25010G16KT P6SM FEW050 BKN080=

USA.gov is the U.S. government's official web portal to all federal, state and local government web resources and services.